ESFQ weather

Public forecast

Using degrees Celsius for public forecast. Weather courtesy of forecast.io.

Closest aviation weather report (METAR) to Kosta Air Base

Closest report is Växjö Kronoberg Airport, 24.3 nm (45.0 km) WNW. Retrieved 2020/08/11 00:20 UTC (37 minutes ago):

ESMX 110020Z AUTO 07005KT 030V100 9999 FEW078/// SCT100/// 15/13 Q1025

Closest aviation forecast (TAF) to Kosta Air Base

Forecast is more than 12 hours old.

Closest forecast is Växjö Kronoberg Airport, 24.3 nm (45.0 km) WNW. Retrieved 2019/06/26 16:36 UTC (1 year ago):

TAF TAF ESMX 261530Z 2616/2724 30009KT 9999 SCT040TCU